Feldbach, Austria
Current Conditions -  °F | °C
As of 2:20 PM on Monday 26 Jan 2015 (Local Time) from LOWG Reporting Station
Scattered Clouds Scattered Clouds  
Wind Chill: 34°   Ceiling: Unl
Heat Index: 37°   Visibility: 6mi
Dew Point: 25°   Wind: 5mph
Humidity: 60%   Direction: 160°SSE
Pressure: 30.21"   Gusts: NA
Location:  46.96°N, 15.89°E
Report Text: LOWG 261220Z 16004KT 110V190 9999 FEW040 SCT300 03/M04 Q1023 R17/1///95 NOSIG
Loading
Personal Weather Stations






























Interactive Weather Map New forecast layout! Learn more

10-Day Weather Forecast

Advertisements
Track Severe Weather on mobile